createdAt,value
2023-03-10T00:02:11.185Z,99105.12
2023-03-10T00:07:04.007Z,99097.48
2023-03-10T00:11:56.989Z,99093.06
2023-03-10T00:16:49.815Z,99094.10
2023-03-10T00:21:42.626Z,99091.05
2023-03-10T00:26:36.014Z,99082.05
2023-03-10T00:31:31.378Z,99075.41
2023-03-10T00:36:29.667Z,99057.71
2023-03-10T00:41:27.984Z,99048.70
2023-03-10T00:46:21.674Z,99036.30
2023-03-10T00:51:14.568Z,99041.77
2023-03-10T00:56:11.428Z,99040.59
2023-03-10T01:01:08.182Z,99026.47
2023-03-10T01:06:02.419Z,99018.67
2023-03-10T01:10:55.709Z,99021.19
2023-03-10T01:15:49.023Z,99019.27
2023-03-10T01:20:42.789Z,99018.26
2023-03-10T01:25:37.670Z,99019.77
2023-03-10T01:30:30.555Z,99013.12
2023-03-10T01:35:23.331Z,99004.48
2023-03-10T01:40:19.947Z,99000.21
2023-03-10T01:45:15.534Z,98993.69
2023-03-10T01:50:13.937Z,98986.76
2023-03-10T01:55:10.392Z,98974.98
2023-03-10T02:00:09.264Z,98969.73
2023-03-10T02:05:09.378Z,98962.88
2023-03-10T02:10:05.759Z,98954.40
2023-03-10T02:14:59.522Z,98950.46
2023-03-10T02:19:58.578Z,98940.77
2023-03-10T02:24:59.098Z,98929.17
2023-03-10T02:30:18.978Z,98922.35
2023-03-10T02:35:13.306Z,98912.17
2023-03-10T02:40:29.910Z,98888.73
2023-03-10T02:45:23.841Z,98877.70
2023-03-10T02:50:19.264Z,98877.19
2023-03-10T02:55:19.668Z,98854.49
2023-03-10T03:00:13.984Z,98860.82
2023-03-10T03:05:09.175Z,98861.20
2023-03-10T03:10:02.153Z,98848.27
2023-03-10T03:14:55.597Z,98851.34
2023-03-10T03:19:52.124Z,98838.61
2023-03-10T03:24:47.436Z,98829.45
2023-03-10T03:29:42.758Z,98818.06
2023-03-10T03:34:36.486Z,98804.45
2023-03-10T03:39:32.005Z,98790.67
2023-03-10T03:44:27.007Z,98774.19
2023-03-10T03:49:21.294Z,98765.14
2023-03-10T03:54:14.778Z,98748.77
2023-03-10T03:59:08.414Z,98729.02
2023-03-10T04:04:01.899Z,98727.89
2023-03-10T04:08:55.108Z,98726.93
2023-03-10T04:13:49.181Z,98713.86
2023-03-10T04:18:42.913Z,98714.41
2023-03-10T04:23:37.512Z,98700.00
2023-03-10T04:28:32.612Z,98682.50
2023-03-10T04:33:25.761Z,98676.93
2023-03-10T04:38:19.309Z,98669.63
2023-03-10T04:43:12.758Z,98664.20
2023-03-10T04:48:06.031Z,98665.27
2023-03-10T04:53:02.147Z,98670.40
2023-03-10T04:57:56.211Z,98667.57
2023-03-10T05:02:49.375Z,98659.14
2023-03-10T05:07:43.054Z,98656.01
2023-03-10T05:12:36.209Z,98652.23
2023-03-10T05:17:31.495Z,98636.85
2023-03-10T05:22:27.909Z,98615.70
2023-03-10T05:27:22.121Z,98606.23
2023-03-10T05:32:15.590Z,98595.63
2023-03-10T05:37:09.914Z,98589.94
2023-03-10T05:42:03.243Z,98570.92
2023-03-10T05:46:58.436Z,98557.77
2023-03-10T05:51:53.466Z,98553.34
2023-03-10T05:56:50.557Z,98574.58
2023-03-10T06:01:54.492Z,98567.83
2023-03-10T06:06:47.293Z,98568.44
2023-03-10T06:11:40.174Z,98568.86
2023-03-10T06:16:35.156Z,98561.64
2023-03-10T06:21:29.649Z,98555.46
2023-03-10T06:26:24.785Z,98550.58
2023-03-10T06:31:21.340Z,98541.64
2023-03-10T06:36:15.713Z,98535.61
2023-03-10T06:41:09.011Z,98530.10
2023-03-10T06:46:05.930Z,98533.05
2023-03-10T06:50:59.184Z,98534.52
2023-03-10T06:56:09.401Z,98529.58
2023-03-10T07:01:02.298Z,98522.26
2023-03-10T07:05:55.905Z,98504.83
2023-03-10T07:10:50.609Z,98495.84
2023-03-10T07:15:45.878Z,98493.25
2023-03-10T07:20:41.909Z,98495.41
2023-03-10T07:25:38.343Z,98487.88
2023-03-10T07:30:31.318Z,98475.40
2023-03-10T07:35:24.161Z,98469.10
2023-03-10T07:40:17.543Z,98468.06
2023-03-10T07:45:10.961Z,98462.52
2023-03-10T07:50:03.978Z,98459.52
2023-03-10T07:54:56.909Z,98458.48
2023-03-10T07:59:49.806Z,98443.27
2023-03-10T08:04:43.234Z,98452.07
2023-03-10T08:09:36.940Z,98441.20
2023-03-10T08:14:31.612Z,98431.63
2023-03-10T08:19:25.774Z,98417.78
2023-03-10T08:24:18.647Z,98419.69
2023-03-10T08:29:11.463Z,98419.73
2023-03-10T08:34:04.263Z,98415.36
2023-03-10T08:38:59.222Z,98412.21
2023-03-10T08:43:53.887Z,98404.73
2023-03-10T08:48:47.404Z,98405.70
2023-03-10T08:53:40.699Z,98401.77
2023-03-10T08:58:34.337Z,98386.89
2023-03-10T09:03:30.308Z,98387.16
2023-03-10T09:08:27.018Z,98379.48
2023-03-10T09:13:23.350Z,98377.52
2023-03-10T09:18:17.190Z,98373.27
2023-03-10T09:23:12.099Z,98361.86
2023-03-10T09:28:05.555Z,98357.13
2023-03-10T09:32:58.504Z,98349.48
2023-03-10T09:37:51.504Z,98347.79
2023-03-10T09:42:49.228Z,98336.84
2023-03-10T09:48:26.311Z,98330.23
2023-03-10T09:54:04.551Z,98324.42
2023-03-10T09:59:11.294Z,98335.16
2023-03-10T10:04:10.196Z,98336.16
2023-03-10T10:09:13.981Z,98324.52
2023-03-10T10:14:28.523Z,98310.80
2023-03-10T10:19:25.324Z,98301.42
2023-03-10T10:24:19.798Z,98291.86
2023-03-10T10:29:18.300Z,98279.86
2023-03-10T10:34:24.044Z,98261.86
2023-03-10T10:39:41.525Z,98259.82
2023-03-10T10:44:42.414Z,98263.61
2023-03-10T10:49:41.209Z,98256.91
2023-03-10T10:54:40.414Z,98241.41
2023-03-10T10:59:35.989Z,98231.43
2023-03-10T11:04:42.783Z,98224.70
2023-03-10T11:09:36.698Z,98240.27
2023-03-10T11:14:49.555Z,98242.15
2023-03-10T11:19:58.275Z,98224.70
2023-03-10T11:25:14.358Z,98214.66
2023-03-10T11:30:16.393Z,98202.79
2023-03-10T11:35:30.324Z,98197.47
2023-03-10T11:40:38.538Z,98185.52
2023-03-10T11:45:37.106Z,98181.78
2023-03-10T11:50:40.574Z,98175.27
2023-03-10T11:55:34.148Z,98166.91
2023-03-10T12:00:40.847Z,98164.20
2023-03-10T12:05:45.372Z,98146.74
2023-03-10T12:10:42.045Z,98147.05
2023-03-10T12:15:39.959Z,98141.73
2023-03-10T12:20:34.559Z,98143.37
2023-03-10T12:25:30.414Z,98146.22
2023-03-10T12:30:56.558Z,98130.41
2023-03-10T12:35:55.340Z,98130.58
2023-03-10T12:40:49.756Z,98130.33
2023-03-10T12:45:47.501Z,98128.33
2023-03-10T12:50:57.034Z,98128.42
2023-03-10T12:56:21.262Z,98125.06
2023-03-10T13:01:18.561Z,98128.87
2023-03-10T13:06:13.582Z,98122.47
2023-03-10T13:11:14.857Z,98115.91
2023-03-10T13:16:09.614Z,98116.18
2023-03-10T13:21:02.954Z,98113.23
2023-03-10T13:26:01.430Z,98110.00
2023-03-10T13:31:10.534Z,98108.58
2023-03-10T13:36:21.090Z,98102.97
2023-03-10T13:41:14.070Z,98106.67
2023-03-10T13:46:29.125Z,98109.96
2023-03-10T13:51:32.109Z,98119.27
2023-03-10T13:56:40.260Z,98121.16
2023-03-10T14:01:36.134Z,98117.81
2023-03-10T14:06:30.103Z,98121.70
2023-03-10T14:11:47.112Z,98124.72
2023-03-10T14:16:54.528Z,98122.76
2023-03-10T14:22:00.316Z,98120.91
2023-03-10T14:26:56.393Z,98122.27
2023-03-10T14:31:52.810Z,98121.27
2023-03-10T14:36:45.683Z,98125.46
2023-03-10T14:41:39.174Z,98115.27
2023-03-10T14:46:35.340Z,98118.80
2023-03-10T14:51:35.535Z,98114.40
2023-03-10T14:56:29.492Z,98106.98
2023-03-10T15:01:23.311Z,98109.45
2023-03-10T15:06:19.202Z,98106.21
2023-03-10T15:11:13.838Z,98103.50
2023-03-10T15:16:08.287Z,98098.47
2023-03-10T15:21:02.627Z,98093.30
2023-03-10T15:25:57.015Z,98088.50
2023-03-10T15:30:50.191Z,98089.64
2023-03-10T15:35:43.230Z,98091.00
2023-03-10T15:40:36.860Z,98086.98
2023-03-10T15:45:32.111Z,98090.69
2023-03-10T15:50:25.346Z,98100.85
2023-03-10T15:55:18.901Z,98102.00
2023-03-10T16:00:13.779Z,98097.05
2023-03-10T16:05:07.664Z,98097.63
2023-03-10T16:10:00.690Z,98098.16
2023-03-10T16:14:55.381Z,98100.22
2023-03-10T16:19:48.523Z,98101.11
2023-03-10T16:24:41.360Z,98102.67
2023-03-10T16:29:34.920Z,98105.10
2023-03-10T16:34:27.876Z,98102.34
2023-03-10T16:39:20.681Z,98105.61
2023-03-10T16:44:15.641Z,98111.46
2023-03-10T16:49:08.788Z,98105.20
2023-03-10T16:54:04.105Z,98099.78
2023-03-10T16:58:58.004Z,98099.20
2023-03-10T17:03:52.196Z,98102.27
2023-03-10T17:08:45.557Z,98101.34
2023-03-10T17:13:38.856Z,98104.55
2023-03-10T17:18:31.996Z,98101.89
2023-03-10T17:23:24.816Z,98103.16
2023-03-10T17:28:17.605Z,98103.39
2023-03-10T17:33:10.637Z,98101.73
2023-03-10T17:38:03.831Z,98095.27
2023-03-10T17:42:56.699Z,98091.21
2023-03-10T17:47:50.665Z,98097.85
2023-03-10T17:52:43.554Z,98096.89
2023-03-10T17:57:36.341Z,98092.30
2023-03-10T18:02:29.187Z,98084.14
2023-03-10T18:07:22.183Z,98088.85
2023-03-10T18:12:14.974Z,98092.02
2023-03-10T18:17:07.781Z,98089.29
2023-03-10T18:22:01.027Z,98087.43
2023-03-10T18:26:53.833Z,98086.08
2023-03-10T18:31:46.610Z,98088.00
2023-03-10T18:36:39.429Z,98087.15
2023-03-10T18:41:32.904Z,98082.36
2023-03-10T18:46:25.886Z,98075.52
2023-03-10T18:51:18.683Z,98067.96
2023-03-10T18:56:11.524Z,98056.65
2023-03-10T19:01:04.426Z,98042.41
2023-03-10T19:05:57.661Z,98036.24
2023-03-10T19:10:58.438Z,98033.86
2023-03-10T19:15:51.659Z,98029.23
2023-03-10T19:20:46.242Z,98032.20
2023-03-10T19:25:39.242Z,98030.34
2023-03-10T19:30:32.819Z,98022.95
2023-03-10T19:35:25.736Z,98026.24
2023-03-10T19:40:20.805Z,98022.64
2023-03-10T19:45:19.167Z,98018.02
2023-03-10T19:50:18.187Z,98013.07
2023-03-10T19:55:16.424Z,98014.83
2023-03-10T20:00:13.882Z,98012.46
2023-03-10T20:05:07.275Z,98007.01
2023-03-10T20:10:00.857Z,97999.84
2023-03-10T20:14:58.744Z,97990.74
2023-03-10T20:20:20.185Z,97979.44
2023-03-10T20:25:19.882Z,97970.86
2023-03-10T20:30:19.606Z,97970.19
2023-03-10T20:35:14.698Z,97967.11
2023-03-10T20:40:08.591Z,97961.96
2023-03-10T20:45:02.653Z,97958.04
2023-03-10T20:49:56.460Z,97955.46
2023-03-10T20:54:49.373Z,97945.35
2023-03-10T20:59:42.216Z,97941.40
2023-03-10T21:04:35.073Z,97936.45
2023-03-10T21:09:28.023Z,97935.40
2023-03-10T21:14:20.804Z,97927.54
2023-03-10T21:19:13.949Z,97923.77
2023-03-10T21:24:07.067Z,97918.78
2023-03-10T21:29:00.597Z,97913.13
2023-03-10T21:33:53.514Z,97906.44
2023-03-10T21:38:48.828Z,97901.47
2023-03-10T21:43:42.517Z,97883.13
2023-03-10T21:48:35.858Z,97877.79
2023-03-10T21:53:29.909Z,97872.13
2023-03-10T21:58:25.175Z,97864.59
2023-03-10T22:03:18.409Z,97857.23
2023-03-10T22:08:11.361Z,97852.77
2023-03-10T22:13:04.510Z,97845.04
2023-03-10T22:17:57.352Z,97840.75
2023-03-10T22:22:50.526Z,97839.39
2023-03-10T22:27:45.054Z,97833.39
2023-03-10T22:32:38.197Z,97824.83
2023-03-10T22:37:31.127Z,97815.73
2023-03-10T22:42:23.913Z,97812.65
2023-03-10T22:47:18.452Z,97806.65
2023-03-10T22:52:11.731Z,97803.38
2023-03-10T22:57:04.864Z,97801.92
2023-03-10T23:01:57.779Z,97802.91
2023-03-10T23:06:51.581Z,97799.41
2023-03-10T23:11:45.516Z,97795.81
2023-03-10T23:16:38.541Z,97797.23
2023-03-10T23:21:31.525Z,97798.33
2023-03-10T23:26:24.316Z,97791.55
2023-03-10T23:31:17.343Z,97793.48
2023-03-10T23:36:11.834Z,97790.95
2023-03-10T23:41:05.313Z,97785.04
2023-03-10T23:45:58.508Z,97788.85
2023-03-10T23:50:52.128Z,97779.45
2023-03-10T23:55:47.809Z,97780.30
